• Join FlightAware (Why Join?)
  • Login
  • US Flag 
Rudolph Flight #1: Scheduled 
09:09PM EST


 

Airport Tracker/Info


-or-


 

Live Flight TrackerFlight Track Log ✈ CES5387 ✈ 19-Aug-2014 ✈ ZSOF / HFE - ZGKL / KWL

Flight Track Log - Related Links

Times and Time Zones

All times are in EDT time to prevent confusion due to time zone crossing. See the CES5387 flight status page for this flight to view local times or setup timezone preferences in your user account.

Time Position Orientation Groundspeed Altitude Reporting Facility
EDT Latitude Longitude Course Direction KTS MPH feet Rate Location/Type
10:42AM 31.1865 116.5828 226° Southwest  Level Estimated
10:43AM 31.1120 116.4940 226° Southwest  Level Estimated
10:44AM 31.0375 116.4053 226° Southwest  Level Estimated
10:45AM 30.9629 116.3168 226° Southwest  Level Estimated
10:46AM 30.8882 116.2284 225° Southwest  Level Estimated
10:47AM 30.8135 116.1401 225° Southwest  Level Estimated
10:48AM 30.7387 116.0520 225° Southwest  Level Estimated
10:49AM 30.6639 115.9640 225° Southwest  Level Estimated
10:50AM 30.5890 115.8761 225° Southwest  Level Estimated
10:51AM 30.5140 115.7884 225° Southwest  Level Estimated
10:52AM 30.4390 115.7008 225° Southwest  Level Estimated
10:53AM 30.3640 115.6134 225° Southwest  Level Estimated
10:54AM 30.2888 115.5261 225° Southwest  Level Estimated
10:55AM 30.2136 115.4389 225° Southwest  Level Estimated
10:56AM 30.1384 115.3518 225° Southwest  Level Estimated
10:57AM 30.0631 115.2649 225° Southwest  Level Estimated
10:58AM 29.9877 115.1781 225° Southwest  Level Estimated
10:59AM 29.9123 115.0915 225° Southwest  Level Estimated
11:00AM 29.8369 115.0050 225° Southwest  Level Estimated
11:01AM 29.7613 114.9186 225° Southwest  Level Estimated
11:02AM 29.6858 114.8323 225° Southwest  Level Estimated
11:03AM 29.6101 114.7462 225° Southwest  Level Estimated
11:04AM 29.5344 114.6602 225° Southwest  Level Estimated
11:05AM 29.4587 114.5743 225° Southwest  Level Estimated
11:06AM 29.3829 114.4886 225° Southwest  Level Estimated
11:07AM 29.3070 114.4029 225° Southwest  Level Estimated
11:08AM 29.2311 114.3175 225° Southwest  Level Estimated
11:09AM 29.1551 114.2321 224° Southwest  Level Estimated
11:10AM 29.0791 114.1469 224° Southwest  Level Estimated
11:11AM 29.0030 114.0618 224° Southwest  Level Estimated
11:12AM 28.9269 113.9768 224° Southwest  Level Estimated
11:13AM 28.8507 113.8919 224° Southwest  Level Estimated
11:14AM 28.7745 113.8072 224° Southwest  Level Estimated
11:15AM 28.6982 113.7226 224° Southwest  Level Estimated
11:16AM 28.6219 113.6381 224° Southwest  Level Estimated
11:17AM 28.5455 113.5537 224° Southwest  Level Estimated
11:18AM 28.4690 113.4695 224° Southwest  Level Estimated
11:19AM 28.3925 113.3853 224° Southwest  Level Estimated
11:20AM 28.3160 113.3013 224° Southwest  Level Estimated
11:21AM 28.2394 113.2175 224° Southwest  Level Estimated
11:22AM 28.1627 113.1337 224° Southwest  Level Estimated
11:23AM 28.0860 113.0501 224° Southwest  Level Estimated
11:24AM 28.0093 112.9665 224° Southwest  Level Estimated
11:25AM 27.9325 112.8831 224° Southwest  Level Estimated
11:26AM 27.8556 112.7999 224° Southwest  Level Estimated
11:27AM 27.7787 112.7167 224° Southwest  Level Estimated
11:28AM 27.7018 112.6336 224° Southwest  Level Estimated
11:29AM 27.6248 112.5507 224° Southwest  Level Estimated
11:30AM 27.5477 112.4679 224° Southwest  Level Estimated
11:31AM 27.4706 112.3852 224° Southwest  Level Estimated
11:32AM 27.3935 112.3026 224° Southwest  Level Estimated
11:33AM 27.3163 112.2202 224° Southwest  Level Estimated
11:34AM 27.2390 112.1378 223° Southwest  Level Estimated
11:35AM 27.1617 112.0556 223° Southwest  Level Estimated
11:36AM 27.0844 111.9734 223° Southwest  Level Estimated
11:37AM 27.0070 111.8914 223° Southwest  Level Estimated
11:38AM 26.9296 111.8095 223° Southwest  Level Estimated
11:39AM 26.8521 111.7278 223° Southwest  Level Estimated
11:40AM 26.7745 111.6461 223° Southwest  Level Estimated
11:41AM 26.6970 111.5645 223° Southwest  Level Estimated
11:42AM 26.6194 111.4831 223° Southwest  Level Estimated
11:43AM 26.5417 111.4017 223° Southwest  Level Estimated
11:44AM 26.4640 111.3205 223° Southwest  Level Estimated
11:45AM 26.3862 111.2394 223° Southwest  Level Estimated
11:46AM 26.3084 111.1584 223° Southwest  Level Estimated
11:47AM 26.2305 111.0775 223° Southwest  Level Estimated
11:48AM 26.1526 110.9967 223° Southwest  Level Estimated
11:49AM 26.0747 110.9160 223° Southwest  Level Estimated
11:50AM 25.9967 110.8354 223° Southwest  Level Estimated
11:51AM 25.9187 110.7549 223° Southwest  Level Estimated
11:52AM 25.8406 110.6746 223° Southwest  Level Estimated
11:53AM 25.7625 110.5943 223° Southwest  Level Estimated
11:54AM 25.6843 110.5142 223° Southwest  Level Estimated
11:55AM 25.6061 110.4341 223° Southwest  Level Estimated
11:56AM 25.5278 110.3542 223° Southwest  Level Estimated
11:57AM 25.4495 110.2743 223° Southwest  Level Estimated
11:58AM 25.3721 110.1955 223° Southwest  Level Estimated
11:59AM 25.2946 110.1168 223° Southwest  Level Estimated
12:00PM 25.2181 110.0392 223° Southwest  Level Estimated
12:01PM 25.2181 110.0392 North  Level Estimated
12:02PM 25.2181 110.0392 North  Level Estimated
12:03PM 25.2181 110.0392 North  Level Estimated
12:04PM 25.2181 110.0392 North  Level Estimated
12:05PM 25.2181 110.0392 North  Level Estimated
12:06PM 25.2181 110.0392 North  Level Estimated
12:07PM 25.2181 110.0392 North  Level Estimated
12:08PM 25.2181 110.0392 North  Level Estimated
12:09PM 25.2181 110.0392 North  Level Estimated
12:10PM 25.2181 110.0392 North  Level Estimated
12:11PM 25.2181 110.0392 North  Level Estimated
12:12PM 25.2181 110.0392 North  Level Estimated
12:13PM 25.2181 110.0392 North  Level Estimated
12:14PM 25.2181 110.0392 North  Level Estimated
12:15PM 25.2181 110.0392 North  Level Estimated
12:16PM 25.2181 110.0392 North  Level Estimated